This is the latest recevied weather packets stored in our database for station/object W4FXD. If no packets are shown the sender has not sent any weather packets the latest 10 day(s).
| Time | Temp. | Humidity | Pressure | Rain* | Wind** | Luminosity | Snow |
|---|---|---|---|---|---|---|---|
| 1777566221 | 17.22° C | 59% | 1014.9 hPa | 0 mm | - | 858 W/m² | - |
| 1777565918 | 17.22° C | 59% | 1015 hPa | 0 mm | - | 841 W/m² | - |
| 1777565613 | 16.67° C | 61% | 1015.1 hPa | 0 mm | - | 868 W/m² | - |
| 1777565311 | 17.22° C | 58% | 1015.3 hPa | 0 mm | - | 343 W/m² | - |
| 1777565006 | 17.22° C | 58% | 1015.2 hPa | 0 mm | - | 821 W/m² | - |
| 1777564702 | 16.67° C | 59% | 1015 hPa | 0 mm | - | 855 W/m² | - |
| 1777564397 | 16.67° C | 60% | 1015 hPa | 0 mm | - | 743 W/m² | - |
| 1777564094 | 17.22° C | 60% | 1015 hPa | 0 mm | - | 711 W/m² | - |
| 1777563790 | 17.22° C | 59% | 1015.2 hPa | 0 mm | - | 756 W/m² | - |
| 1777563486 | 16.67° C | 60% | 1015.2 hPa | 0 mm | - | 844 W/m² | - |
| 1777563185 | 16.67° C | 59% | 1015.4 hPa | 0 mm | - | 838 W/m² | - |
| 1777562882 | 16.67° C | 59% | 1015.2 hPa | 0 mm | - | 852 W/m² | - |
| 1777562579 | 16.11° C | 63% | 1015.4 hPa | 0 mm | - | 851 W/m² | - |
| 1777562277 | 16.67° C | 61% | 1015.1 hPa | 0 mm | - | 810 W/m² | - |
| 1777561974 | 16.67° C | 63% | 1015.2 hPa | 0 mm | - | 773 W/m² | - |
| 1777561671 | 15.56° C | 64% | 1015.4 hPa | 0 mm | - | 755 W/m² | - |
| 1777561367 | 15.56° C | 64% | 1015 hPa | 0 mm | - | 815 W/m² | - |
| 1777561062 | 16.11° C | 62% | 1015.3 hPa | 0 mm | - | 784 W/m² | - |
| 1777560758 | 16.11° C | 62% | 1014.9 hPa | 0 mm | - | 768 W/m² | - |
| 1777560455 | 16.11° C | 63% | 1015.2 hPa | 0 mm | - | 727 W/m² | - |
| 1777560152 | 15.56° C | 65% | 1014.9 hPa | 0 mm | - | 733 W/m² | - |
| 1777559849 | 15.56° C | 65% | 1015 hPa | 0 mm | - | 741 W/m² | - |
| 1777559545 | 15.56° C | 66% | 1015.1 hPa | 0 mm | - | 711 W/m² | - |
| 1777559243 | 15.56° C | 66% | 1015 hPa | 0 mm | - | 691 W/m² | - |
| 1777558938 | 15° C | 67% | 1015.1 hPa | 0 mm | - | 648 W/m² | - |
* Rain latest hour (hover to see other rain measurements)
** Current wind speed in m/s (hover to see current wind gust speed)